createdAt,value
2022-12-16T00:01:29.524Z,74.00
2022-12-16T00:04:00.270Z,73.40
2022-12-16T00:06:34.033Z,79.15
2022-12-16T00:09:04.313Z,75.50
2022-12-16T00:11:33.618Z,73.10
2022-12-16T00:14:03.607Z,80.97
2022-12-16T00:16:34.474Z,80.78
2022-12-16T00:19:05.008Z,84.38
2022-12-16T00:21:34.617Z,76.07
2022-12-16T00:24:04.348Z,71.82
2022-12-16T00:26:33.772Z,81.93
2022-12-16T00:29:05.691Z,77.93
2022-12-16T00:31:36.532Z,78.93
2022-12-16T00:34:06.507Z,73.05
2022-12-16T00:36:36.109Z,75.57
2022-12-16T00:39:05.860Z,75.93
2022-12-16T00:41:35.504Z,77.30
2022-12-16T00:44:05.757Z,78.20
2022-12-16T00:46:36.588Z,70.65
2022-12-16T00:49:06.396Z,83.25
2022-12-16T00:51:35.740Z,77.90
2022-12-16T00:54:05.565Z,72.18
2022-12-16T00:56:35.232Z,89.00
2022-12-16T00:59:05.085Z,79.13
2022-12-16T01:01:36.345Z,78.22
2022-12-16T01:04:07.161Z,83.47
2022-12-16T01:06:36.405Z,68.70
2022-12-16T01:09:06.173Z,73.95
2022-12-16T01:11:35.464Z,66.78
2022-12-16T01:14:06.473Z,75.20
2022-12-16T01:16:37.278Z,77.05
2022-12-16T01:19:07.160Z,70.43
2022-12-16T01:21:36.492Z,78.25
2022-12-16T01:24:07.169Z,74.45
2022-12-16T01:26:36.422Z,88.13
2022-12-16T01:29:06.514Z,80.20
2022-12-16T01:31:38.514Z,80.80
2022-12-16T01:34:08.663Z,76.18
2022-12-16T01:36:37.910Z,74.07
2022-12-16T01:39:07.554Z,78.55
2022-12-16T01:41:36.964Z,76.75
2022-12-16T01:44:17.333Z,74.65
2022-12-16T01:46:52.791Z,77.40
2022-12-16T01:49:30.385Z,66.93
2022-12-16T01:52:03.872Z,80.60
2022-12-16T01:54:37.285Z,77.40
2022-12-16T01:57:11.799Z,82.47
2022-12-16T01:59:45.191Z,78.10
2022-12-16T02:02:16.605Z,70.40
2022-12-16T02:05:06.787Z,75.32
2022-12-16T02:07:36.203Z,79.38
2022-12-16T02:10:06.476Z,71.85
2022-12-16T02:12:46.624Z,74.13
2022-12-16T02:15:31.010Z,75.35
2022-12-16T02:18:10.378Z,71.40
2022-12-16T02:21:15.807Z,78.25
2022-12-16T02:24:17.409Z,84.65
2022-12-16T02:27:21.795Z,85.15
2022-12-16T02:30:25.204Z,83.90
2022-12-16T02:33:05.105Z,72.68
2022-12-16T02:35:41.784Z,82.20
2022-12-16T02:38:23.788Z,82.35
2022-12-16T02:40:57.041Z,71.05
2022-12-16T02:43:42.392Z,79.95
2022-12-16T02:46:13.633Z,79.97
2022-12-16T02:48:43.312Z,80.70
2022-12-16T02:51:13.151Z,83.03
2022-12-16T02:53:45.216Z,75.28
2022-12-16T02:56:26.620Z,81.80
2022-12-16T02:59:09.313Z,80.18
2022-12-16T03:01:50.331Z,90.40
2022-12-16T03:04:24.253Z,78.65
2022-12-16T03:06:56.197Z,89.28
2022-12-16T03:09:30.504Z,82.93
2022-12-16T03:12:01.404Z,87.43
2022-12-16T03:14:35.661Z,80.50
2022-12-16T03:17:07.631Z,87.50
2022-12-16T03:19:39.810Z,75.70
2022-12-16T03:22:13.423Z,86.57
2022-12-16T03:24:44.189Z,80.35
2022-12-16T03:27:20.195Z,79.35
2022-12-16T03:29:56.372Z,82.53
2022-12-16T03:32:34.507Z,82.47
2022-12-16T03:35:14.564Z,78.28
2022-12-16T03:42:46.981Z,92.38
2022-12-16T03:45:22.507Z,85.25
2022-12-16T03:47:54.759Z,79.03
2022-12-16T03:50:28.685Z,91.53
2022-12-16T03:52:58.722Z,99.32
2022-12-16T03:55:29.212Z,75.43
2022-12-16T03:57:59.119Z,99.75
2022-12-16T04:00:28.891Z,91.88
2022-12-16T04:02:59.892Z,93.60
2022-12-16T04:05:30.111Z,93.10
2022-12-16T04:08:02.245Z,77.70
2022-12-16T04:10:49.681Z,78.38
2022-12-16T04:13:36.391Z,97.03
2022-12-16T04:16:24.312Z,85.82
2022-12-16T04:19:12.337Z,83.22
2022-12-16T04:21:59.353Z,99.03
2022-12-16T04:24:30.863Z,82.55
2022-12-16T04:27:18.254Z,107.22
2022-12-16T04:30:16.371Z,97.95
2022-12-16T04:33:04.084Z,87.82
2022-12-16T04:35:51.925Z,102.80
2022-12-16T04:38:38.999Z,91.55
2022-12-16T04:41:25.836Z,101.68
2022-12-16T04:44:12.825Z,110.72
2022-12-16T04:46:59.648Z,110.82
2022-12-16T04:49:46.271Z,101.32
2022-12-16T04:52:35.296Z,98.75
2022-12-16T04:55:24.153Z,102.00
2022-12-16T04:58:11.943Z,105.13
2022-12-16T05:00:59.967Z,97.10
2022-12-16T05:03:47.488Z,108.47
2022-12-16T05:06:34.997Z,101.35
2022-12-16T05:09:24.552Z,115.60
2022-12-16T05:12:11.968Z,116.70
2022-12-16T05:14:58.458Z,123.65
2022-12-16T05:17:45.751Z,118.78
2022-12-16T05:20:32.521Z,117.85
2022-12-16T05:23:19.469Z,174.25
2022-12-16T05:26:07.524Z,131.10
2022-12-16T05:28:55.117Z,143.35
2022-12-16T05:31:41.490Z,128.52
2022-12-16T05:34:28.593Z,132.02
2022-12-16T05:37:14.888Z,155.10
2022-12-16T05:40:01.462Z,132.80
2022-12-16T05:42:49.481Z,129.85
2022-12-16T05:45:36.576Z,135.90
2022-12-16T05:48:22.796Z,136.57
2022-12-16T05:51:10.222Z,163.35
2022-12-16T05:53:56.626Z,178.60
2022-12-16T05:56:43.302Z,158.45
2022-12-16T05:59:31.356Z,155.13
2022-12-16T06:02:23.633Z,190.98
2022-12-16T06:05:10.436Z,172.10
2022-12-16T06:07:57.329Z,156.23
2022-12-16T06:10:43.592Z,158.88
2022-12-16T06:13:31.126Z,168.85
2022-12-16T06:16:19.658Z,187.43
2022-12-16T06:19:06.729Z,157.80
2022-12-16T06:21:53.321Z,159.68
2022-12-16T06:24:40.252Z,176.75
2022-12-16T06:27:26.961Z,183.88
2022-12-16T06:30:14.404Z,162.63
2022-12-16T06:33:03.705Z,160.05
2022-12-16T06:35:50.760Z,161.50
2022-12-16T06:38:37.164Z,147.35
2022-12-16T06:41:24.169Z,150.90
2022-12-16T06:44:10.749Z,173.95
2022-12-16T06:47:03.199Z,164.13
2022-12-16T06:49:51.254Z,169.68
2022-12-16T06:52:38.156Z,147.38
2022-12-16T06:55:25.165Z,140.43
2022-12-16T06:58:16.896Z,141.15
2022-12-16T07:03:50.612Z,140.45
2022-12-16T07:06:38.800Z,145.60
2022-12-16T07:09:25.997Z,147.68
2022-12-16T07:12:12.260Z,153.60
2022-12-16T07:14:59.348Z,140.43
2022-12-16T07:17:45.946Z,147.45
2022-12-16T07:20:33.397Z,152.73
2022-12-16T07:23:21.595Z,139.52
2022-12-16T07:26:09.071Z,150.85
2022-12-16T07:28:55.393Z,140.25
2022-12-16T07:31:42.417Z,147.90
2022-12-16T07:34:29.153Z,126.50
2022-12-16T07:37:16.159Z,131.40
2022-12-16T07:40:04.156Z,141.80
2022-12-16T07:43:06.080Z,126.18
2022-12-16T07:45:53.158Z,134.10
2022-12-16T07:48:40.800Z,135.25
2022-12-16T07:51:27.593Z,133.93
2022-12-16T07:54:14.689Z,154.45
2022-12-16T07:57:02.574Z,145.10
2022-12-16T07:59:49.731Z,154.95
2022-12-16T08:02:32.850Z,136.15
2022-12-16T08:05:20.085Z,122.63
2022-12-16T08:08:06.435Z,136.10
2022-12-16T08:10:53.443Z,139.85
2022-12-16T08:13:44.533Z,132.90
2022-12-16T08:16:31.491Z,142.73
2022-12-16T08:19:18.167Z,141.45
2022-12-16T08:22:05.164Z,143.90
2022-12-16T08:24:53.700Z,138.23
2022-12-16T08:27:57.456Z,173.20
2022-12-16T08:30:45.699Z,182.00
2022-12-16T08:33:33.197Z,151.98
2022-12-16T08:36:19.889Z,171.55
2022-12-16T08:39:06.910Z,150.30
2022-12-16T08:41:53.337Z,133.25
2022-12-16T08:44:40.738Z,156.23
2022-12-16T08:47:29.224Z,130.82
2022-12-16T08:50:15.925Z,143.25
2022-12-16T08:53:02.276Z,130.02
2022-12-16T08:55:49.324Z,133.15
2022-12-16T08:58:35.973Z,130.23
2022-12-16T09:01:23.252Z,137.52
2022-12-16T09:04:11.577Z,132.63
2022-12-16T09:06:58.897Z,130.73
2022-12-16T09:09:45.383Z,109.82
2022-12-16T09:12:32.489Z,136.65
2022-12-16T09:15:18.973Z,125.47
2022-12-16T09:18:11.825Z,135.55
2022-12-16T09:21:00.081Z,120.50
2022-12-16T09:23:47.124Z,122.20
2022-12-16T09:26:33.625Z,120.07
2022-12-16T09:29:20.992Z,112.68
2022-12-16T09:32:07.416Z,118.15
2022-12-16T09:34:54.837Z,121.40
2022-12-16T09:37:42.921Z,124.68
2022-12-16T09:40:34.513Z,127.30
2022-12-16T09:46:27.179Z,111.95
2022-12-16T09:49:20.640Z,109.38
2022-12-16T09:52:12.498Z,125.18
2022-12-16T09:55:06.263Z,100.50
2022-12-16T09:57:55.564Z,98.38
2022-12-16T10:00:43.812Z,116.82
2022-12-16T10:03:38.393Z,121.22
2022-12-16T10:06:30.791Z,109.68
2022-12-16T10:09:29.328Z,117.35
2022-12-16T10:12:25.176Z,102.72
2022-12-16T10:15:20.061Z,104.25
2022-12-16T10:18:06.499Z,108.85
2022-12-16T10:21:03.454Z,103.93
2022-12-16T10:23:58.021Z,98.15
2022-12-16T10:26:51.629Z,118.07
2022-12-16T10:29:58.846Z,95.50
2022-12-16T10:32:51.196Z,111.13
2022-12-16T10:35:42.059Z,105.22
2022-12-16T10:41:21.335Z,115.50
2022-12-16T10:44:09.641Z,102.43
2022-12-16T10:46:57.483Z,107.18
2022-12-16T10:49:46.474Z,98.78
2022-12-16T10:52:46.416Z,101.15
2022-12-16T10:55:45.938Z,103.63
2022-12-16T10:58:39.179Z,102.15
2022-12-16T11:01:42.200Z,103.35
2022-12-16T11:04:51.176Z,105.72
2022-12-16T11:07:52.887Z,113.72
2022-12-16T11:13:42.344Z,117.40
2022-12-16T11:16:34.641Z,118.80
2022-12-16T11:19:21.702Z,123.20
2022-12-16T11:22:09.637Z,118.60
2022-12-16T11:24:56.893Z,140.55
2022-12-16T11:27:46.168Z,142.02
2022-12-16T11:30:40.298Z,127.50
2022-12-16T11:33:35.296Z,137.98
2022-12-16T11:36:32.321Z,130.85
2022-12-16T11:39:21.146Z,139.82
2022-12-16T11:42:12.045Z,131.00
2022-12-16T11:45:02.014Z,150.88
2022-12-16T11:47:56.947Z,134.03
2022-12-16T11:50:46.267Z,125.53
2022-12-16T11:53:48.375Z,133.13
2022-12-16T11:56:40.878Z,151.20
2022-12-16T11:59:38.157Z,142.55
2022-12-16T12:02:32.412Z,149.48
2022-12-16T12:05:19.549Z,149.15
2022-12-16T12:08:15.516Z,147.48
2022-12-16T12:11:22.011Z,143.30
2022-12-16T12:14:23.544Z,149.20
2022-12-16T12:17:20.101Z,158.75
2022-12-16T12:20:16.992Z,156.98
2022-12-16T12:23:06.959Z,156.75
2022-12-16T12:26:03.707Z,152.15
2022-12-16T12:28:59.929Z,161.23
2022-12-16T12:31:58.242Z,169.98
2022-12-16T12:34:58.030Z,172.35
2022-12-16T12:37:53.850Z,163.70
2022-12-16T12:40:57.514Z,155.15
2022-12-16T12:43:55.139Z,154.65
2022-12-16T12:46:53.426Z,162.75
2022-12-16T12:49:47.660Z,150.35
2022-12-16T12:52:45.941Z,168.32
2022-12-16T12:55:41.900Z,155.20
2022-12-16T12:58:31.292Z,176.30
2022-12-16T13:01:19.841Z,182.10
2022-12-16T13:04:12.768Z,179.80
2022-12-16T13:06:59.568Z,160.70
2022-12-16T13:09:50.338Z,161.85
2022-12-16T13:12:43.553Z,143.70
2022-12-16T13:15:38.115Z,144.05
2022-12-16T13:18:41.990Z,136.43
2022-12-16T13:22:04.689Z,143.10
2022-12-16T13:25:12.768Z,149.38
2022-12-16T13:28:14.372Z,141.68
2022-12-16T13:31:24.642Z,142.15
2022-12-16T13:34:14.008Z,129.45
2022-12-16T13:37:01.944Z,146.23
2022-12-16T13:39:50.560Z,126.78
2022-12-16T13:43:13.865Z,137.18
2022-12-16T13:46:17.583Z,129.15
2022-12-16T13:49:04.123Z,120.22
2022-12-16T13:52:26.464Z,140.50
2022-12-16T13:55:33.135Z,137.88
2022-12-16T13:58:25.350Z,147.77
2022-12-16T14:01:24.750Z,134.27
2022-12-16T14:04:14.331Z,140.48
2022-12-16T14:07:00.705Z,160.95
2022-12-16T14:09:54.527Z,160.30
2022-12-16T14:13:07.247Z,153.93
2022-12-16T14:16:05.398Z,146.98
2022-12-16T14:19:03.618Z,139.10
2022-12-16T14:21:57.808Z,131.80
2022-12-16T14:24:46.128Z,143.38
2022-12-16T14:27:36.117Z,133.18
2022-12-16T14:30:36.628Z,132.95
2022-12-16T14:33:41.039Z,154.13
2022-12-16T14:36:48.639Z,129.52
2022-12-16T14:39:41.588Z,134.10
2022-12-16T14:42:38.041Z,135.00
2022-12-16T14:45:40.843Z,127.70
2022-12-16T14:48:49.924Z,129.93
2022-12-16T14:51:42.904Z,119.97
2022-12-16T14:54:40.819Z,127.97
2022-12-16T14:57:33.588Z,128.85
2022-12-16T15:00:33.720Z,144.65
2022-12-16T15:03:25.732Z,122.57
2022-12-16T15:06:13.136Z,111.72
2022-12-16T15:09:07.828Z,108.82
2022-12-16T15:11:56.431Z,114.95
2022-12-16T15:14:48.507Z,113.57
2022-12-16T15:17:52.192Z,117.82
2022-12-16T15:20:42.731Z,109.55
2022-12-16T15:23:36.121Z,117.95
2022-12-16T15:26:23.544Z,133.90
2022-12-16T15:29:09.859Z,124.68
2022-12-16T15:32:03.278Z,126.40
2022-12-16T15:34:57.544Z,123.85
2022-12-16T15:38:00.653Z,121.32
2022-12-16T15:40:52.910Z,107.18
2022-12-16T15:43:44.476Z,117.97
2022-12-16T15:46:39.770Z,117.47
2022-12-16T15:49:36.593Z,122.63
2022-12-16T15:52:41.711Z,118.75
2022-12-16T15:55:47.949Z,120.78
2022-12-16T15:58:38.890Z,113.70
2022-12-16T16:01:27.101Z,123.25
2022-12-16T16:04:16.012Z,129.07
2022-12-16T16:07:07.344Z,122.45
2022-12-16T16:09:57.172Z,123.60
2022-12-16T16:12:44.944Z,133.15
2022-12-16T16:15:33.793Z,114.40
2022-12-16T16:18:23.499Z,112.97
2022-12-16T16:21:10.980Z,119.28
2022-12-16T16:23:58.020Z,123.07
2022-12-16T16:26:47.414Z,110.40
2022-12-16T16:29:34.626Z,105.80
2022-12-16T16:32:21.403Z,104.00
2022-12-16T16:35:08.409Z,125.75
2022-12-16T16:37:55.016Z,118.28
2022-12-16T16:40:49.563Z,88.20
2022-12-16T16:43:39.593Z,99.20
2022-12-16T16:46:48.510Z,103.40
2022-12-16T16:49:41.010Z,95.45
2022-12-16T16:52:31.232Z,95.93
2022-12-16T16:55:17.932Z,79.03
2022-12-16T16:58:04.884Z,80.47
2022-12-16T17:00:53.407Z,65.65
2022-12-16T17:03:41.626Z,68.00
2022-12-16T17:06:28.643Z,65.60
2022-12-16T17:09:16.044Z,61.90
2022-12-16T17:12:04.984Z,72.97
2022-12-16T17:14:53.052Z,63.63
2022-12-16T17:17:41.417Z,61.85
2022-12-16T17:20:34.572Z,67.78
2022-12-16T17:23:20.985Z,72.07
2022-12-16T17:26:10.501Z,69.65
2022-12-16T17:28:57.207Z,65.90
2022-12-16T17:31:43.939Z,63.20
2022-12-16T17:34:31.902Z,67.85
2022-12-16T17:37:18.920Z,68.80
2022-12-16T17:40:05.301Z,70.18
2022-12-16T17:42:52.037Z,70.10
2022-12-16T17:45:41.189Z,71.95
2022-12-16T17:48:28.741Z,75.93
2022-12-16T17:51:16.707Z,86.10
2022-12-16T17:54:10.703Z,72.18
2022-12-16T17:57:02.657Z,71.50
2022-12-16T17:59:54.456Z,66.53
2022-12-16T18:02:46.991Z,74.38
2022-12-16T18:05:41.118Z,68.72
2022-12-16T18:08:32.363Z,67.15
2022-12-16T18:11:19.199Z,69.82
2022-12-16T18:14:06.380Z,58.28
2022-12-16T18:16:53.956Z,65.90
2022-12-16T18:19:40.702Z,60.95
2022-12-16T18:22:28.127Z,57.80
2022-12-16T18:25:16.173Z,66.55
2022-12-16T18:28:03.072Z,71.93
2022-12-16T18:30:49.811Z,63.38
2022-12-16T18:33:37.353Z,75.43
2022-12-16T18:36:24.427Z,73.82
2022-12-16T18:39:11.106Z,71.25
2022-12-16T18:42:03.225Z,62.63
2022-12-16T18:44:50.084Z,61.88
2022-12-16T18:47:37.037Z,55.92
2022-12-16T18:50:28.657Z,73.40
2022-12-16T18:53:18.547Z,62.72
2022-12-16T18:56:06.038Z,63.03
2022-12-16T18:58:55.574Z,67.85
2022-12-16T19:01:42.639Z,67.38
2022-12-16T19:04:29.172Z,63.75
2022-12-16T19:07:16.245Z,69.55
2022-12-16T19:10:02.622Z,68.20
2022-12-16T19:12:49.916Z,71.22
2022-12-16T19:15:41.274Z,69.05
2022-12-16T19:18:30.439Z,74.28
2022-12-16T19:21:17.000Z,64.45
2022-12-16T19:24:06.415Z,56.20
2022-12-16T19:27:01.579Z,68.07
2022-12-16T19:29:48.668Z,60.75
2022-12-16T19:32:36.662Z,62.72
2022-12-16T19:35:23.945Z,65.40
2022-12-16T19:38:10.272Z,58.88
2022-12-16T19:40:57.292Z,66.75
2022-12-16T19:43:44.237Z,62.53
2022-12-16T19:46:28.001Z,64.13
2022-12-16T19:49:16.200Z,64.97
2022-12-16T19:52:03.571Z,63.08
2022-12-16T19:54:49.937Z,57.17
2022-12-16T19:57:37.131Z,46.55
2022-12-16T20:00:25.105Z,52.08
2022-12-16T20:03:11.994Z,54.25
2022-12-16T20:06:00.091Z,60.47
2022-12-16T20:08:46.932Z,61.30
2022-12-16T20:11:33.434Z,65.22
2022-12-16T20:14:20.644Z,53.75
2022-12-16T20:17:07.053Z,69.68
2022-12-16T20:19:53.759Z,59.38
2022-12-16T20:22:45.015Z,67.18
2022-12-16T20:25:31.865Z,60.72
2022-12-16T20:28:24.635Z,75.68
2022-12-16T20:31:12.342Z,63.40
2022-12-16T20:34:02.885Z,55.45
2022-12-16T20:39:37.582Z,68.57
2022-12-16T20:42:24.562Z,63.30
2022-12-16T20:45:11.210Z,61.50
2022-12-16T20:47:58.110Z,68.20
2022-12-16T20:50:44.713Z,60.28
2022-12-16T20:53:40.693Z,67.03
2022-12-16T20:56:29.083Z,58.58
2022-12-16T20:59:16.010Z,59.83
2022-12-16T21:02:22.587Z,54.53
2022-12-16T21:05:09.729Z,51.67
2022-12-16T21:07:56.871Z,56.55
2022-12-16T21:10:44.415Z,55.83
2022-12-16T21:13:34.942Z,56.10
2022-12-16T21:16:24.394Z,56.80
2022-12-16T21:19:10.515Z,51.30
2022-12-16T21:21:57.764Z,55.22
2022-12-16T21:24:44.470Z,70.07
2022-12-16T21:27:31.420Z,70.40
2022-12-16T21:30:19.636Z,54.72
2022-12-16T21:33:08.369Z,66.55
2022-12-16T21:35:56.069Z,61.65
2022-12-16T21:38:43.462Z,67.60
2022-12-16T21:41:29.952Z,67.50
2022-12-16T21:44:17.341Z,67.38
2022-12-16T21:47:05.514Z,65.45
2022-12-16T21:49:56.056Z,68.85
2022-12-16T21:52:42.599Z,67.13
2022-12-16T21:55:29.621Z,75.75
2022-12-16T21:58:16.634Z,70.85
2022-12-16T22:01:03.569Z,65.00
2022-12-16T22:03:55.177Z,69.80
2022-12-16T22:06:48.443Z,66.30
2022-12-16T22:09:35.898Z,69.93
2022-12-16T22:12:23.764Z,61.78
2022-12-16T22:15:10.162Z,61.95
2022-12-16T22:21:15.431Z,72.53
2022-12-16T22:24:02.493Z,67.57
2022-12-16T22:26:48.800Z,71.82
2022-12-16T22:29:36.010Z,64.55
2022-12-16T22:32:22.936Z,66.55
2022-12-16T22:35:15.285Z,69.32
2022-12-16T22:38:03.578Z,62.85
2022-12-16T22:40:50.429Z,74.68
2022-12-16T22:43:36.949Z,71.63
2022-12-16T22:46:24.207Z,82.00
2022-12-16T22:49:10.596Z,74.50
2022-12-16T22:51:57.585Z,64.65
2022-12-16T22:54:45.518Z,67.00
2022-12-16T22:57:32.992Z,66.88
2022-12-16T23:00:19.313Z,58.92
2022-12-16T23:03:05.435Z,65.00
2022-12-16T23:05:52.056Z,48.75
2022-12-16T23:08:39.976Z,54.40
2022-12-16T23:11:38.730Z,56.25
2022-12-16T23:14:25.673Z,53.88
2022-12-16T23:17:12.124Z,52.42
2022-12-16T23:19:59.089Z,56.60
2022-12-16T23:22:45.643Z,51.60
2022-12-16T23:25:32.608Z,52.55
2022-12-16T23:28:20.559Z,58.30
2022-12-16T23:31:11.574Z,66.70
2022-12-16T23:33:58.585Z,61.97
2022-12-16T23:36:45.929Z,66.93
2022-12-16T23:39:32.891Z,67.25
2022-12-16T23:42:20.167Z,66.85
2022-12-16T23:45:08.653Z,55.25
2022-12-16T23:47:57.935Z,65.68
2022-12-16T23:50:44.264Z,66.97
2022-12-16T23:53:31.308Z,69.60
2022-12-16T23:56:19.159Z,68.72
2022-12-16T23:59:06.958Z,68.43
